sensor_id;sensor_type;location;lat;lon;timestamp;temperature;humidity
7970;DHT22;4030;52.362;9.206;2023-04-21T00:00:22;12.70;67.00
7970;DHT22;4030;52.362;9.206;2023-04-21T00:10:08;12.70;67.10
7970;DHT22;4030;52.362;9.206;2023-04-21T00:12:34;12.70;67.20
7970;DHT22;4030;52.362;9.206;2023-04-21T00:15:00;12.60;67.10
7970;DHT22;4030;52.362;9.206;2023-04-21T00:17:26;12.70;67.30
7970;DHT22;4030;52.362;9.206;2023-04-21T00:19:52;12.60;67.10
7970;DHT22;4030;52.362;9.206;2023-04-21T00:22:18;12.70;67.40
7970;DHT22;4030;52.362;9.206;2023-04-21T00:24:45;12.60;67.40
7970;DHT22;4030;52.362;9.206;2023-04-21T00:29:37;12.50;67.40
7970;DHT22;4030;52.362;9.206;2023-04-21T00:32:05;12.60;67.50
7970;DHT22;4030;52.362;9.206;2023-04-21T00:34:34;12.50;67.50
7970;DHT22;4030;52.362;9.206;2023-04-21T00:37:00;12.50;67.50
7970;DHT22;4030;52.362;9.206;2023-04-21T00:39:25;12.50;67.60
7970;DHT22;4030;52.362;9.206;2023-04-21T00:41:51;12.40;67.50
7970;DHT22;4030;52.362;9.206;2023-04-21T00:44:17;12.40;67.60
7970;DHT22;4030;52.362;9.206;2023-04-21T00:46:42;12.40;67.70
7970;DHT22;4030;52.362;9.206;2023-04-21T00:49:08;12.40;67.70
7970;DHT22;4030;52.362;9.206;2023-04-21T00:51:35;12.40;67.70
7970;DHT22;4030;52.362;9.206;2023-04-21T00:54:06;12.50;68.00
7970;DHT22;4030;52.362;9.206;2023-04-21T00:56:33;12.30;67.90
7970;DHT22;4030;52.362;9.206;2023-04-21T00:59:00;12.40;68.10
7970;DHT22;4030;52.362;9.206;2023-04-21T01:01:28;12.30;68.10
7970;DHT22;4030;52.362;9.206;2023-04-21T01:03:56;12.30;68.20
7970;DHT22;4030;52.362;9.206;2023-04-21T01:06:23;12.30;68.60
7970;DHT22;4030;52.362;9.206;2023-04-21T01:08:51;12.30;68.80
7970;DHT22;4030;52.362;9.206;2023-04-21T01:11:17;12.40;69.10
7970;DHT22;4030;52.362;9.206;2023-04-21T01:13:43;12.30;69.20
7970;DHT22;4030;52.362;9.206;2023-04-21T01:16:15;12.30;69.50
7970;DHT22;4030;52.362;9.206;2023-04-21T01:18:41;12.20;69.70
7970;DHT22;4030;52.362;9.206;2023-04-21T01:21:07;12.20;69.90
7970;DHT22;4030;52.362;9.206;2023-04-21T01:25:59;12.20;70.50
7970;DHT22;4030;52.362;9.206;2023-04-21T01:28:25;12.20;70.70
7970;DHT22;4030;52.362;9.206;2023-04-21T01:30:51;12.10;70.90
7970;DHT22;4030;52.362;9.206;2023-04-21T01:33:18;12.10;71.20
7970;DHT22;4030;52.362;9.206;2023-04-21T01:35:45;12.00;71.20
7970;DHT22;4030;52.362;9.206;2023-04-21T01:38:10;12.20;71.70
7970;DHT22;4030;52.362;9.206;2023-04-21T01:40:36;12.20;72.00
7970;DHT22;4030;52.362;9.206;2023-04-21T01:43:03;12.10;72.20
7970;DHT22;4030;52.362;9.206;2023-04-21T01:45:30;12.10;72.50
7970;DHT22;4030;52.362;9.206;2023-04-21T01:47:55;12.00;72.70
7970;DHT22;4030;52.362;9.206;2023-04-21T01:57:40;12.00;73.90
7970;DHT22;4030;52.362;9.206;2023-04-21T02:00:06;11.90;74.00
7970;DHT22;4030;52.362;9.206;2023-04-21T02:02:33;12.00;74.10
7970;DHT22;4030;52.362;9.206;2023-04-21T02:04:59;11.90;74.10
7970;DHT22;4030;52.362;9.206;2023-04-21T02:07:24;11.90;74.20
7970;DHT22;4030;52.362;9.206;2023-04-21T02:09:50;11.80;74.20
7970;DHT22;4030;52.362;9.206;2023-04-21T02:41:29;11.80;75.60
7970;DHT22;4030;52.362;9.206;2023-04-21T02:48:46;11.80;75.90
7970;DHT22;4030;52.362;9.206;2023-04-21T02:51:13;11.70;75.90
7970;DHT22;4030;52.362;9.206;2023-04-21T02:53:40;11.80;76.00
7970;DHT22;4030;52.362;9.206;2023-04-21T02:56:07;11.80;76.00
7970;DHT22;4030;52.362;9.206;2023-04-21T02:58:34;11.80;76.00
7970;DHT22;4030;52.362;9.206;2023-04-21T03:01:01;11.80;76.00
7970;DHT22;4030;52.362;9.206;2023-04-21T03:03:27;11.80;76.00
7970;DHT22;4030;52.362;9.206;2023-04-21T03:06:03;11.80;75.90
7970;DHT22;4030;52.362;9.206;2023-04-21T03:08:30;11.80;75.70
7970;DHT22;4030;52.362;9.206;2023-04-21T03:10:56;11.80;75.60
7970;DHT22;4030;52.362;9.206;2023-04-21T03:13:22;11.80;75.50
7970;DHT22;4030;52.362;9.206;2023-04-21T03:15:48;11.80;75.40
7970;DHT22;4030;52.362;9.206;2023-04-21T03:18:15;11.80;75.30
7970;DHT22;4030;52.362;9.206;2023-04-21T03:20:41;11.80;75.20
7970;DHT22;4030;52.362;9.206;2023-04-21T03:23:07;11.70;75.00
7970;DHT22;4030;52.362;9.206;2023-04-21T03:25:33;11.80;75.00
7970;DHT22;4030;52.362;9.206;2023-04-21T03:27:58;11.80;74.90
7970;DHT22;4030;52.362;9.206;2023-04-21T03:30:24;11.80;74.80
7970;DHT22;4030;52.362;9.206;2023-04-21T03:35:17;11.80;74.60
7970;DHT22;4030;52.362;9.206;2023-04-21T03:37:43;11.80;74.50
7970;DHT22;4030;52.362;9.206;2023-04-21T03:40:09;11.70;74.50
7970;DHT22;4030;52.362;9.206;2023-04-21T03:42:35;11.70;74.40
7970;DHT22;4030;52.362;9.206;2023-04-21T03:45:02;11.70;74.40
7970;DHT22;4030;52.362;9.206;2023-04-21T03:47:29;11.80;74.60
7970;DHT22;4030;52.362;9.206;2023-04-21T03:49:55;11.70;74.40
7970;DHT22;4030;52.362;9.206;2023-04-21T03:59:39;11.70;74.10
7970;DHT22;4030;52.362;9.206;2023-04-21T04:24:00;11.50;73.50
7970;DHT22;4030;52.362;9.206;2023-04-21T04:26:26;11.50;73.40
7970;DHT22;4030;52.362;9.206;2023-04-21T04:28:52;11.50;73.50
7970;DHT22;4030;52.362;9.206;2023-04-21T04:31:23;11.60;73.60
7970;DHT22;4030;52.362;9.206;2023-04-21T04:46:04;11.40;73.00
7970;DHT22;4030;52.362;9.206;2023-04-21T04:53:22;11.40;73.00
7970;DHT22;4030;52.362;9.206;2023-04-21T05:20:10;11.60;73.20
7970;DHT22;4030;52.362;9.206;2023-04-21T05:22:36;11.50;73.20
7970;DHT22;4030;52.362;9.206;2023-04-21T05:25:03;11.60;73.30
7970;DHT22;4030;52.362;9.206;2023-04-21T05:27:29;11.60;73.30
7970;DHT22;4030;52.362;9.206;2023-04-21T05:29:55;11.60;73.30
7970;DHT22;4030;52.362;9.206;2023-04-21T06:13:46;12.30;74.60
7970;DHT22;4030;52.362;9.206;2023-04-21T06:26:00;12.50;75.00
7970;DHT22;4030;52.362;9.206;2023-04-21T06:28:29;12.50;75.00
7970;DHT22;4030;52.362;9.206;2023-04-21T06:30:56;12.60;75.10
7970;DHT22;4030;52.362;9.206;2023-04-21T06:33:22;12.60;75.10
7970;DHT22;4030;52.362;9.206;2023-04-21T06:35:47;12.60;75.20
7970;DHT22;4030;52.362;9.206;2023-04-21T06:38:13;12.70;75.30
7970;DHT22;4030;52.362;9.206;2023-04-21T06:40:39;12.80;75.40
7970;DHT22;4030;52.362;9.206;2023-04-21T07:00:08;13.30;76.80
7970;DHT22;4030;52.362;9.206;2023-04-21T07:02:34;13.40;77.10
7970;DHT22;4030;52.362;9.206;2023-04-21T07:04:59;13.30;77.20
7970;DHT22;4030;52.362;9.206;2023-04-21T07:07:26;13.40;77.30
7970;DHT22;4030;52.362;9.206;2023-04-21T07:22:05;13.70;78.20
7970;DHT22;4030;52.362;9.206;2023-04-21T07:24:30;13.70;78.30
7970;DHT22;4030;52.362;9.206;2023-04-21T07:26:58;13.70;78.40
7970;DHT22;4030;52.362;9.206;2023-04-21T07:29:24;13.80;78.70
7970;DHT22;4030;52.362;9.206;2023-04-21T07:34:16;13.90;78.90
7970;DHT22;4030;52.362;9.206;2023-04-21T07:41:34;14.00;79.40
7970;DHT22;4030;52.362;9.206;2023-04-21T07:43:59;14.10;79.50
7970;DHT22;4030;52.362;9.206;2023-04-21T07:46:25;14.10;79.50
7970;DHT22;4030;52.362;9.206;2023-04-21T07:48:55;14.20;79.70
7970;DHT22;4030;52.362;9.206;2023-04-21T07:51:22;14.20;79.80
7970;DHT22;4030;52.362;9.206;2023-04-21T07:53:48;14.30;79.90
7970;DHT22;4030;52.362;9.206;2023-04-21T07:56:14;14.20;79.90
7970;DHT22;4030;52.362;9.206;2023-04-21T07:58:40;14.40;80.10
7970;DHT22;4030;52.362;9.206;2023-04-21T08:01:05;14.50;80.30
7970;DHT22;4030;52.362;9.206;2023-04-21T08:05:57;14.50;80.30
7970;DHT22;4030;52.362;9.206;2023-04-21T08:20:33;14.90;80.50
7970;DHT22;4030;52.362;9.206;2023-04-21T08:32:44;15.30;80.70
7970;DHT22;4030;52.362;9.206;2023-04-21T08:37:37;15.40;80.90
7970;DHT22;4030;52.362;9.206;2023-04-21T08:40:06;15.50;81.00
7970;DHT22;4030;52.362;9.206;2023-04-21T08:42:33;15.60;81.10
7970;DHT22;4030;52.362;9.206;2023-04-21T08:44:59;15.60;81.10
7970;DHT22;4030;52.362;9.206;2023-04-21T08:47:25;15.80;81.30
7970;DHT22;4030;52.362;9.206;2023-04-21T08:49:51;15.90;81.30
7970;DHT22;4030;52.362;9.206;2023-04-21T08:52:18;15.90;81.30
7970;DHT22;4030;52.362;9.206;2023-04-21T08:54:45;16.00;81.40
7970;DHT22;4030;52.362;9.206;2023-04-21T08:57:11;16.10;81.40
7970;DHT22;4030;52.362;9.206;2023-04-21T08:59:37;16.20;81.40
7970;DHT22;4030;52.362;9.206;2023-04-21T09:02:10;16.30;81.40
7970;DHT22;4030;52.362;9.206;2023-04-21T09:04:42;16.40;81.30
7970;DHT22;4030;52.362;9.206;2023-04-21T09:09:54;16.60;80.90
7970;DHT22;4030;52.362;9.206;2023-04-21T09:12:22;16.70;80.70
7970;DHT22;4030;52.362;9.206;2023-04-21T09:14:47;16.70;80.40
7970;DHT22;4030;52.362;9.206;2023-04-21T09:17:17;17.00;80.60
7970;DHT22;4030;52.362;9.206;2023-04-21T09:22:17;17.10;80.10
7970;DHT22;4030;52.362;9.206;2023-04-21T09:24:47;17.20;79.80
7970;DHT22;4030;52.362;9.206;2023-04-21T09:27:14;17.40;79.80
7970;DHT22;4030;52.362;9.206;2023-04-21T09:29:45;17.50;79.60
7970;DHT22;4030;52.362;9.206;2023-04-21T09:32:16;17.70;79.50
7970;DHT22;4030;52.362;9.206;2023-04-21T09:37:10;17.90;78.60
7970;DHT22;4030;52.362;9.206;2023-04-21T09:39:37;18.00;78.20
7970;DHT22;4030;52.362;9.206;2023-04-21T09:44:30;18.20;77.50
7970;DHT22;4030;52.362;9.206;2023-04-21T09:47:02;18.40;77.10
7970;DHT22;4030;52.362;9.206;2023-04-21T09:49:29;18.50;76.50
7970;DHT22;4030;52.362;9.206;2023-04-21T09:51:59;18.70;76.00
7970;DHT22;4030;52.362;9.206;2023-04-21T09:54:35;18.80;75.60
7970;DHT22;4030;52.362;9.206;2023-04-21T09:57:09;18.90;75.00
7970;DHT22;4030;52.362;9.206;2023-04-21T09:59:41;19.20;74.80
7970;DHT22;4030;52.362;9.206;2023-04-21T10:02:10;19.30;73.90
7970;DHT22;4030;52.362;9.206;2023-04-21T10:04:38;19.40;73.20
7970;DHT22;4030;52.362;9.206;2023-04-21T10:07:06;19.60;72.70
7970;DHT22;4030;52.362;9.206;2023-04-21T10:09:45;19.70;72.10
7970;DHT22;4030;52.362;9.206;2023-04-21T10:12:14;19.90;71.50
7970;DHT22;4030;52.362;9.206;2023-04-21T10:14:40;20.10;71.20
7970;DHT22;4030;52.362;9.206;2023-04-21T10:17:07;20.20;70.60
7970;DHT22;4030;52.362;9.206;2023-04-21T10:19:35;20.30;70.00
7970;DHT22;4030;52.362;9.206;2023-04-21T10:22:08;20.40;69.40
7970;DHT22;4030;52.362;9.206;2023-04-21T10:24:39;20.60;69.00
7970;DHT22;4030;52.362;9.206;2023-04-21T10:27:11;20.80;68.40
7970;DHT22;4030;52.362;9.206;2023-04-21T10:29:57;20.90;67.80
7970;DHT22;4030;52.362;9.206;2023-04-21T10:32:39;21.10;67.50
7970;DHT22;4030;52.362;9.206;2023-04-21T10:35:21;21.10;68.10
7970;DHT22;4030;52.362;9.206;2023-04-21T10:37:49;21.30;66.90
7970;DHT22;4030;52.362;9.206;2023-04-21T10:40:35;21.30;66.20
7970;DHT22;4030;52.362;9.206;2023-04-21T10:43:04;21.30;65.70
7970;DHT22;4030;52.362;9.206;2023-04-21T10:45:30;21.30;65.30
7970;DHT22;4030;52.362;9.206;2023-04-21T10:47:59;21.40;64.80
7970;DHT22;4030;52.362;9.206;2023-04-21T10:50:30;21.30;64.40
7970;DHT22;4030;52.362;9.206;2023-04-21T10:53:07;21.40;64.00
7970;DHT22;4030;52.362;9.206;2023-04-21T10:55:35;21.40;63.60
7970;DHT22;4030;52.362;9.206;2023-04-21T10:58:03;21.50;63.50
7970;DHT22;4030;52.362;9.206;2023-04-21T11:00:32;21.60;63.40
7970;DHT22;4030;52.362;9.206;2023-04-21T11:03:02;21.60;63.00
7970;DHT22;4030;52.362;9.206;2023-04-21T11:05:37;21.60;62.80
7970;DHT22;4030;52.362;9.206;2023-04-21T11:08:11;21.70;63.10
7970;DHT22;4030;52.362;9.206;2023-04-21T11:10:44;21.80;63.10
7970;DHT22;4030;52.362;9.206;2023-04-21T11:13:19;21.80;62.70
7970;DHT22;4030;52.362;9.206;2023-04-21T11:16:05;21.90;62.60
7970;DHT22;4030;52.362;9.206;2023-04-21T11:18:42;21.90;62.40
7970;DHT22;4030;52.362;9.206;2023-04-21T11:21:19;21.90;62.00
7970;DHT22;4030;52.362;9.206;2023-04-21T11:23:53;21.90;61.40
7970;DHT22;4030;52.362;9.206;2023-04-21T11:26:34;22.00;61.00
7970;DHT22;4030;52.362;9.206;2023-04-21T11:29:06;22.10;60.60
7970;DHT22;4030;52.362;9.206;2023-04-21T11:31:34;22.20;60.30
7970;DHT22;4030;52.362;9.206;2023-04-21T11:34:01;22.20;60.00
7970;DHT22;4030;52.362;9.206;2023-04-21T11:36:42;22.20;59.80
7970;DHT22;4030;52.362;9.206;2023-04-21T11:39:12;22.30;59.50
7970;DHT22;4030;52.362;9.206;2023-04-21T11:41:44;22.30;59.20
7970;DHT22;4030;52.362;9.206;2023-04-21T11:44:12;22.30;59.00
7970;DHT22;4030;52.362;9.206;2023-04-21T11:46:45;22.50;59.10
7970;DHT22;4030;52.362;9.206;2023-04-21T11:49:12;22.50;58.40
7970;DHT22;4030;52.362;9.206;2023-04-21T11:51:41;22.60;58.00
7970;DHT22;4030;52.362;9.206;2023-04-21T11:54:09;22.50;57.10
7970;DHT22;4030;52.362;9.206;2023-04-21T11:56:46;22.60;57.00
7970;DHT22;4030;52.362;9.206;2023-04-21T11:59:14;22.70;57.20
7970;DHT22;4030;52.362;9.206;2023-04-21T12:01:46;22.70;57.00
7970;DHT22;4030;52.362;9.206;2023-04-21T12:04:17;22.80;56.60
7970;DHT22;4030;52.362;9.206;2023-04-21T12:06:45;22.80;56.10
7970;DHT22;4030;52.362;9.206;2023-04-21T12:09:19;22.90;55.90
7970;DHT22;4030;52.362;9.206;2023-04-21T12:11:53;22.90;55.40
7970;DHT22;4030;52.362;9.206;2023-04-21T12:14:23;22.90;55.80
7970;DHT22;4030;52.362;9.206;2023-04-21T12:16:53;23.00;54.50
7970;DHT22;4030;52.362;9.206;2023-04-21T12:19:24;23.10;54.20
7970;DHT22;4030;52.362;9.206;2023-04-21T12:21:59;23.10;54.00
7970;DHT22;4030;52.362;9.206;2023-04-21T12:24:25;23.10;54.00
7970;DHT22;4030;52.362;9.206;2023-04-21T12:26:51;23.10;53.90
7970;DHT22;4030;52.362;9.206;2023-04-21T12:29:17;23.20;53.50
7970;DHT22;4030;52.362;9.206;2023-04-21T12:31:42;23.20;53.50
7970;DHT22;4030;52.362;9.206;2023-04-21T12:34:08;23.20;53.20
7970;DHT22;4030;52.362;9.206;2023-04-21T12:36:34;23.30;52.40
7970;DHT22;4030;52.362;9.206;2023-04-21T12:39:00;23.30;51.90
7970;DHT22;4030;52.362;9.206;2023-04-21T12:41:26;23.30;52.20
7970;DHT22;4030;52.362;9.206;2023-04-21T12:43:52;23.40;52.30
7970;DHT22;4030;52.362;9.206;2023-04-21T12:46:17;23.40;52.30
7970;DHT22;4030;52.362;9.206;2023-04-21T12:48:43;23.40;52.10
7970;DHT22;4030;52.362;9.206;2023-04-21T12:51:09;23.50;52.70
7970;DHT22;4030;52.362;9.206;2023-04-21T12:53:34;23.50;51.80
7970;DHT22;4030;52.362;9.206;2023-04-21T12:56:01;23.60;52.10
7970;DHT22;4030;52.362;9.206;2023-04-21T12:58:27;23.60;53.00
7970;DHT22;4030;52.362;9.206;2023-04-21T13:00:53;23.60;54.10
7970;DHT22;4030;52.362;9.206;2023-04-21T13:03:19;23.50;54.70
7970;DHT22;4030;52.362;9.206;2023-04-21T13:05:45;23.60;55.40
7970;DHT22;4030;52.362;9.206;2023-04-21T13:08:11;23.60;55.80
7970;DHT22;4030;52.362;9.206;2023-04-21T13:10:37;23.70;56.40
7970;DHT22;4030;52.362;9.206;2023-04-21T13:13:02;23.70;56.40
7970;DHT22;4030;52.362;9.206;2023-04-21T13:15:28;23.70;56.40
7970;DHT22;4030;52.362;9.206;2023-04-21T13:17:54;23.80;56.50
7970;DHT22;4030;52.362;9.206;2023-04-21T13:22:46;23.90;56.80
7970;DHT22;4030;52.362;9.206;2023-04-21T13:25:12;24.00;56.90
7970;DHT22;4030;52.362;9.206;2023-04-21T13:27:37;24.00;56.90
7970;DHT22;4030;52.362;9.206;2023-04-21T13:30:09;24.20;57.00
7970;DHT22;4030;52.362;9.206;2023-04-21T13:35:02;24.30;56.50
7970;DHT22;4030;52.362;9.206;2023-04-21T13:37:33;24.40;57.10
7970;DHT22;4030;52.362;9.206;2023-04-21T13:40:00;24.50;56.10
7970;DHT22;4030;52.362;9.206;2023-04-21T13:42:27;24.70;56.10
7970;DHT22;4030;52.362;9.206;2023-04-21T13:44:52;24.60;56.60
7970;DHT22;4030;52.362;9.206;2023-04-21T13:47:18;24.80;55.30
7970;DHT22;4030;52.362;9.206;2023-04-21T13:49:44;24.90;55.20
7970;DHT22;4030;52.362;9.206;2023-04-21T13:52:10;25.10;54.80
7970;DHT22;4030;52.362;9.206;2023-04-21T13:54:36;25.10;54.50
7970;DHT22;4030;52.362;9.206;2023-04-21T13:57:02;25.20;55.10
7970;DHT22;4030;52.362;9.206;2023-04-21T13:59:28;25.40;53.80
7970;DHT22;4030;52.362;9.206;2023-04-21T14:04:20;25.70;53.20
7970;DHT22;4030;52.362;9.206;2023-04-21T14:06:47;25.70;53.80
7970;DHT22;4030;52.362;9.206;2023-04-21T14:09:14;25.80;53.50
7970;DHT22;4030;52.362;9.206;2023-04-21T14:11:39;25.90;53.10
7970;DHT22;4030;52.362;9.206;2023-04-21T14:14:05;26.10;53.00
7970;DHT22;4030;52.362;9.206;2023-04-21T14:16:30;26.20;52.60
7970;DHT22;4030;52.362;9.206;2023-04-21T14:18:56;26.30;52.10
7970;DHT22;4030;52.362;9.206;2023-04-21T14:21:22;26.60;50.90
7970;DHT22;4030;52.362;9.206;2023-04-21T14:23:48;26.60;51.40
7970;DHT22;4030;52.362;9.206;2023-04-21T14:26:13;26.80;51.70
7970;DHT22;4030;52.362;9.206;2023-04-21T14:28:39;27.00;51.10
7970;DHT22;4030;52.362;9.206;2023-04-21T14:31:04;27.30;49.70
7970;DHT22;4030;52.362;9.206;2023-04-21T14:33:30;27.60;49.20
7970;DHT22;4030;52.362;9.206;2023-04-21T14:35:57;28.10;48.30
7970;DHT22;4030;52.362;9.206;2023-04-21T14:38:24;28.90;46.90
7970;DHT22;4030;52.362;9.206;2023-04-21T14:40:50;29.80;45.00
7970;DHT22;4030;52.362;9.206;2023-04-21T14:43:19;30.80;42.80
7970;DHT22;4030;52.362;9.206;2023-04-21T14:45:48;31.90;40.70
7970;DHT22;4030;52.362;9.206;2023-04-21T14:48:14;32.80;38.70
7970;DHT22;4030;52.362;9.206;2023-04-21T14:50:40;33.70;36.90
7970;DHT22;4030;52.362;9.206;2023-04-21T14:53:05;34.40;34.40
7970;DHT22;4030;52.362;9.206;2023-04-21T14:55:32;34.50;34.90
7970;DHT22;4030;52.362;9.206;2023-04-21T14:57:58;34.50;34.50
7970;DHT22;4030;52.362;9.206;2023-04-21T15:00:24;34.30;34.80
7970;DHT22;4030;52.362;9.206;2023-04-21T15:02:50;34.10;34.90
7970;DHT22;4030;52.362;9.206;2023-04-21T15:05:16;33.90;34.80
7970;DHT22;4030;52.362;9.206;2023-04-21T15:07:45;34.40;34.60
7970;DHT22;4030;52.362;9.206;2023-04-21T15:10:11;35.30;32.30
7970;DHT22;4030;52.362;9.206;2023-04-21T15:12:37;35.30;32.90
7970;DHT22;4030;52.362;9.206;2023-04-21T15:15:04;35.10;32.90
7970;DHT22;4030;52.362;9.206;2023-04-21T15:17:30;35.00;33.10
7970;DHT22;4030;52.362;9.206;2023-04-21T15:19:56;34.70;32.70
7970;DHT22;4030;52.362;9.206;2023-04-21T15:22:22;34.60;32.70
7970;DHT22;4030;52.362;9.206;2023-04-21T15:24:48;34.50;33.20
7970;DHT22;4030;52.362;9.206;2023-04-21T15:27:14;34.20;33.60
7970;DHT22;4030;52.362;9.206;2023-04-21T15:29:39;33.60;34.40
7970;DHT22;4030;52.362;9.206;2023-04-21T15:32:05;32.70;35.90
7970;DHT22;4030;52.362;9.206;2023-04-21T15:34:31;31.70;37.30
7970;DHT22;4030;52.362;9.206;2023-04-21T15:36:56;31.00;38.70
7970;DHT22;4030;52.362;9.206;2023-04-21T15:39:22;30.30;39.70
7970;DHT22;4030;52.362;9.206;2023-04-21T15:41:48;29.70;40.60
7970;DHT22;4030;52.362;9.206;2023-04-21T15:44:13;29.30;41.40
7970;DHT22;4030;52.362;9.206;2023-04-21T15:46:39;28.90;41.80
7970;DHT22;4030;52.362;9.206;2023-04-21T15:49:05;28.70;42.80
7970;DHT22;4030;52.362;9.206;2023-04-21T15:51:31;28.60;42.00
7970;DHT22;4030;52.362;9.206;2023-04-21T15:53:57;28.40;41.80
7970;DHT22;4030;52.362;9.206;2023-04-21T15:56:23;28.10;42.30
7970;DHT22;4030;52.362;9.206;2023-04-21T15:58:48;28.10;42.80
7970;DHT22;4030;52.362;9.206;2023-04-21T16:01:14;27.80;42.60
7970;DHT22;4030;52.362;9.206;2023-04-21T16:03:40;27.80;42.40
7970;DHT22;4030;52.362;9.206;2023-04-21T16:06:06;27.70;43.00
7970;DHT22;4030;52.362;9.206;2023-04-21T16:08:32;27.30;42.90
7970;DHT22;4030;52.362;9.206;2023-04-21T16:10:58;27.30;42.90
7970;DHT22;4030;52.362;9.206;2023-04-21T16:13:24;27.50;42.80
7970;DHT22;4030;52.362;9.206;2023-04-21T16:15:50;27.70;42.60
7970;DHT22;4030;52.362;9.206;2023-04-21T16:18:16;27.70;43.20
7970;DHT22;4030;52.362;9.206;2023-04-21T16:20:42;27.40;43.10
7970;DHT22;4030;52.362;9.206;2023-04-21T16:23:10;27.20;43.40
7970;DHT22;4030;52.362;9.206;2023-04-21T16:25:37;27.00;43.80
7970;DHT22;4030;52.362;9.206;2023-04-21T16:28:02;26.90;44.00
7970;DHT22;4030;52.362;9.206;2023-04-21T16:30:28;26.70;44.10
7970;DHT22;4030;52.362;9.206;2023-04-21T16:32:54;26.50;44.40
7970;DHT22;4030;52.362;9.206;2023-04-21T16:35:19;26.30;44.60
7970;DHT22;4030;52.362;9.206;2023-04-21T16:37:45;26.00;44.90
7970;DHT22;4030;52.362;9.206;2023-04-21T16:40:11;25.80;45.50
7970;DHT22;4030;52.362;9.206;2023-04-21T16:42:37;25.70;45.70
7970;DHT22;4030;52.362;9.206;2023-04-21T16:45:03;25.60;46.20
7970;DHT22;4030;52.362;9.206;2023-04-21T16:47:30;25.60;46.00
7970;DHT22;4030;52.362;9.206;2023-04-21T16:49:58;25.80;45.20
7970;DHT22;4030;52.362;9.206;2023-04-21T16:52:24;25.90;45.30
7970;DHT22;4030;52.362;9.206;2023-04-21T16:54:52;25.90;45.20
7970;DHT22;4030;52.362;9.206;2023-04-21T16:57:18;25.80;44.30
7970;DHT22;4030;52.362;9.206;2023-04-21T16:59:43;25.80;44.90
7970;DHT22;4030;52.362;9.206;2023-04-21T17:04:36;25.20;44.80
7970;DHT22;4030;52.362;9.206;2023-04-21T17:07:04;25.00;45.50
7970;DHT22;4030;52.362;9.206;2023-04-21T17:09:31;24.80;44.60
7970;DHT22;4030;52.362;9.206;2023-04-21T17:11:56;24.80;44.70
7970;DHT22;4030;52.362;9.206;2023-04-21T17:14:22;24.60;44.10
7970;DHT22;4030;52.362;9.206;2023-04-21T17:16:48;24.60;44.70
7970;DHT22;4030;52.362;9.206;2023-04-21T17:19:14;24.40;45.00
7970;DHT22;4030;52.362;9.206;2023-04-21T17:21:39;24.30;44.80
7970;DHT22;4030;52.362;9.206;2023-04-21T17:24:05;24.00;44.90
7970;DHT22;4030;52.362;9.206;2023-04-21T17:26:31;23.90;44.60
7970;DHT22;4030;52.362;9.206;2023-04-21T17:28:56;23.80;44.80
7970;DHT22;4030;52.362;9.206;2023-04-21T17:33:48;23.60;44.90
7970;DHT22;4030;52.362;9.206;2023-04-21T17:36:16;23.50;45.20
7970;DHT22;4030;52.362;9.206;2023-04-21T17:38:42;23.40;45.40
7970;DHT22;4030;52.362;9.206;2023-04-21T17:41:08;23.30;45.40
7970;DHT22;4030;52.362;9.206;2023-04-21T17:43:34;23.30;45.40
7970;DHT22;4030;52.362;9.206;2023-04-21T17:45:59;23.10;45.40
7970;DHT22;4030;52.362;9.206;2023-04-21T17:48:25;23.10;45.90
7970;DHT22;4030;52.362;9.206;2023-04-21T17:50:51;23.00;46.00
7970;DHT22;4030;52.362;9.206;2023-04-21T17:53:17;22.90;46.10
7970;DHT22;4030;52.362;9.206;2023-04-21T17:55:43;22.80;46.10
7970;DHT22;4030;52.362;9.206;2023-04-21T18:00:35;22.70;46.60
7970;DHT22;4030;52.362;9.206;2023-04-21T18:05:28;22.50;46.40
7970;DHT22;4030;52.362;9.206;2023-04-21T18:07:53;22.40;46.50
7970;DHT22;4030;52.362;9.206;2023-04-21T18:12:46;22.30;46.70
7970;DHT22;4030;52.362;9.206;2023-04-21T18:15:11;22.20;46.60
7970;DHT22;4030;52.362;9.206;2023-04-21T18:20:04;22.10;47.10
7970;DHT22;4030;52.362;9.206;2023-04-21T18:22:31;21.90;47.00
7970;DHT22;4030;52.362;9.206;2023-04-21T18:24:57;21.90;47.30
7970;DHT22;4030;52.362;9.206;2023-04-21T18:27:24;21.80;47.40
7970;DHT22;4030;52.362;9.206;2023-04-21T18:32:16;21.70;47.40
7970;DHT22;4030;52.362;9.206;2023-04-21T18:34:42;21.60;47.50
7970;DHT22;4030;52.362;9.206;2023-04-21T18:37:07;21.50;47.50
7970;DHT22;4030;52.362;9.206;2023-04-21T18:39:33;21.40;47.50
7970;DHT22;4030;52.362;9.206;2023-04-21T18:41:59;21.40;47.70
7970;DHT22;4030;52.362;9.206;2023-04-21T18:44:25;21.40;47.70
7970;DHT22;4030;52.362;9.206;2023-04-21T18:49:17;21.20;47.70
7970;DHT22;4030;52.362;9.206;2023-04-21T18:56:36;21.00;48.00
7970;DHT22;4030;52.362;9.206;2023-04-21T18:59:02;20.90;48.00
7970;DHT22;4030;52.362;9.206;2023-04-21T19:01:27;20.90;48.10
7970;DHT22;4030;52.362;9.206;2023-04-21T19:08:45;20.70;48.20
7970;DHT22;4030;52.362;9.206;2023-04-21T19:11:12;20.60;48.30
7970;DHT22;4030;52.362;9.206;2023-04-21T19:13:39;20.60;48.40
7970;DHT22;4030;52.362;9.206;2023-04-21T19:16:05;20.50;48.30
7970;DHT22;4030;52.362;9.206;2023-04-21T19:18:32;20.50;48.50
7970;DHT22;4030;52.362;9.206;2023-04-21T19:20:58;20.40;48.50
7970;DHT22;4030;52.362;9.206;2023-04-21T19:28:19;20.30;48.70
7970;DHT22;4030;52.362;9.206;2023-04-21T19:30:45;20.20;48.70
7970;DHT22;4030;52.362;9.206;2023-04-21T19:33:12;20.20;48.90
7970;DHT22;4030;52.362;9.206;2023-04-21T19:35:38;20.20;49.00
7970;DHT22;4030;52.362;9.206;2023-04-21T19:38:04;20.10;49.00
7970;DHT22;4030;52.362;9.206;2023-04-21T19:40:31;20.10;49.10
7970;DHT22;4030;52.362;9.206;2023-04-21T19:42:56;19.90;49.00
7970;DHT22;4030;52.362;9.206;2023-04-21T19:45:23;19.90;49.10
7970;DHT22;4030;52.362;9.206;2023-04-21T19:47:49;19.90;49.20
7970;DHT22;4030;52.362;9.206;2023-04-21T19:50:16;19.80;49.20
7970;DHT22;4030;52.362;9.206;2023-04-21T19:52:42;19.80;49.20
7970;DHT22;4030;52.362;9.206;2023-04-21T19:57:34;19.70;49.30
7970;DHT22;4030;52.362;9.206;2023-04-21T20:00:00;19.60;49.30
7970;DHT22;4030;52.362;9.206;2023-04-21T20:02:26;19.60;49.40
7970;DHT22;4030;52.362;9.206;2023-04-21T20:04:52;19.50;49.30
7970;DHT22;4030;52.362;9.206;2023-04-21T20:07:18;19.50;49.40
7970;DHT22;4030;52.362;9.206;2023-04-21T20:09:44;19.50;49.40
7970;DHT22;4030;52.362;9.206;2023-04-21T20:12:09;19.40;49.40
7970;DHT22;4030;52.362;9.206;2023-04-21T20:17:03;19.30;49.40
7970;DHT22;4030;52.362;9.206;2023-04-21T20:19:28;19.40;49.50
7970;DHT22;4030;52.362;9.206;2023-04-21T20:21:56;19.20;49.40
7970;DHT22;4030;52.362;9.206;2023-04-21T20:24:21;19.30;49.50
7970;DHT22;4030;52.362;9.206;2023-04-21T20:26:48;19.20;49.50
7970;DHT22;4030;52.362;9.206;2023-04-21T20:29:14;19.10;49.50
7970;DHT22;4030;52.362;9.206;2023-04-21T20:31:40;19.00;49.50
7970;DHT22;4030;52.362;9.206;2023-04-21T20:36:33;19.10;49.80
7970;DHT22;4030;52.362;9.206;2023-04-21T20:39:01;19.10;49.80
7970;DHT22;4030;52.362;9.206;2023-04-21T20:41:30;19.00;49.90
7970;DHT22;4030;52.362;9.206;2023-04-21T20:43:58;18.90;49.80
7970;DHT22;4030;52.362;9.206;2023-04-21T20:46:25;18.90;49.80
7970;DHT22;4030;52.362;9.206;2023-04-21T20:48:51;18.90;49.90
7970;DHT22;4030;52.362;9.206;2023-04-21T20:51:17;18.80;49.90
7970;DHT22;4030;52.362;9.206;2023-04-21T20:53:42;18.80;50.00
7970;DHT22;4030;52.362;9.206;2023-04-21T21:01:01;18.70;50.00
7970;DHT22;4030;52.362;9.206;2023-04-21T21:03:27;18.70;50.10
7970;DHT22;4030;52.362;9.206;2023-04-21T21:05:53;18.60;50.00